Time;durP1;ratioP1;P1;durP2;ratioP2;P2;SDS_P1;SDS_P2;PMS_P1;PMS_P2;Temp;Humidity;BMP_temperature;BMP_pressure;BME280_temperature;BME280_humidity;BME280_pressure;Samples;Min_cycle;Max_cycle;Signal;HPM_P1;HPM_P2
2021/12/27 00:00:11;;;;;;;21.58;12.57;;;;;;;;;;5083625;28;20453;-41
2021/12/27 00:02:37;;;;;;;20.77;13.30;;;;;;;;;;5073738;28;20043;-43
2021/12/27 00:05:04;;;;;;;20.42;11.98;;;;;;;;;;5073066;28;20036;-41
2021/12/27 00:07:30;;;;;;;22.73;14.35;;;;;;;;;;5070223;28;20036;-42
2021/12/27 00:09:56;;;;;;;23.92;12.73;;;;;;;;;;5074821;28;20129;-44
2021/12/27 00:12:24;;;;;;;20.98;12.98;;;;;;;;;;5070228;28;20040;-41
2021/12/27 00:14:50;;;;;;;21.08;13.25;;;;;;;;;;5067481;28;20090;-41
2021/12/27 00:17:16;;;;;;;23.85;12.25;;;;;;;;;;5073571;28;20048;-44
2021/12/27 00:19:42;;;;;;;21.17;13.50;;;;;;;;;;5069443;28;20029;-45
2021/12/27 00:22:08;;;;;;;20.20;11.68;;;;;;;;;;5071886;28;20123;-44
2021/12/27 00:24:35;;;;;;;19.70;12.20;;;;;;;;;;5076401;28;20528;-41
2021/12/27 00:27:01;;;;;;;21.52;12.85;;;;;;;;;;5067627;28;20575;-43
2021/12/27 00:29:27;;;;;;;24.42;12.98;;;;;;;;;;5080250;28;20047;-46
2021/12/27 00:31:53;;;;;;;25.83;12.38;;;;;;;;;;5070822;28;20055;-47
2021/12/27 00:34:19;;;;;;;20.90;12.32;;;;;;;;;;5073787;28;21287;-46
2021/12/27 00:36:46;;;;;;;21.25;13.40;;;;;;;;;;5068869;28;20041;-43
2021/12/27 00:39:12;;;;;;;20.58;12.75;;;;;;;;;;5082228;28;20044;-47
2021/12/27 00:41:38;;;;;;;23.35;13.70;;;;;;;;;;5063209;28;20032;-42
2021/12/27 00:44:06;;;;;;;23.38;13.65;;;-0.70;99.90;;;;;;5067456;28;20051;-44
2021/12/27 00:46:32;;;;;;;21.80;14.00;;;;;;;;;;5073530;28;20045;-46
2021/12/27 00:48:58;;;;;;;21.08;12.65;;;;;;;;;;5065229;28;20122;-46
2021/12/27 00:51:25;;;;;;;22.98;13.23;;;;;;;;;;5076134;28;20048;-42
2021/12/27 00:53:51;;;;;;;23.23;13.35;;;;;;;;;;5072141;28;20044;-45
2021/12/27 00:56:17;;;;;;;21.83;13.43;;;;;;;;;;5075564;28;20036;-43
2021/12/27 00:58:43;;;;;;;22.30;12.93;;;;;;;;;;5072980;28;20040;-45
2021/12/27 01:01:11;;;;;;;20.45;12.57;;;;;;;;;;5067916;28;20040;-47
2021/12/27 01:03:37;;;;;;;25.77;14.98;;;;;;;;;;5072857;28;20028;-46
2021/12/27 01:06:03;;;;;;;26.67;14.00;;;;;;;;;;5071588;28;20044;-46
2021/12/27 01:08:32;;;;;;;22.17;13.25;;;;;;;;;;5061336;28;20371;-45
2021/12/27 01:11:13;;;;;;;23.65;13.32;;;;;;;;;;5076316;28;20040;-46
2021/12/27 01:13:58;;;;;;;23.85;14.23;;;;;;;;;;5073568;28;20040;-45
2021/12/27 01:16:24;;;;;;;24.83;13.98;;;;;;;;;;5072894;28;20142;-42
2021/12/27 01:18:52;;;;;;;22.05;13.48;;;;;;;;;;5073479;28;20040;-42
2021/12/27 01:21:20;;;;;;;23.17;13.75;;;;;;;;;;5064180;28;20158;-41
2021/12/27 01:23:46;;;;;;;22.00;13.27;;;;;;;;;;5069663;28;20631;-44
2021/12/27 01:26:13;;;;;;;23.38;13.98;;;;;;;;;;5071594;28;20036;-42
2021/12/27 01:28:39;;;;;;;25.52;15.50;;;;;;;;;;5072172;28;20378;-42
2021/12/27 01:31:05;;;;;;;20.65;10.90;;;;;;;;;;5074277;28;20033;-42
2021/12/27 01:33:32;;;;;;;22.75;14.75;;;;;;;;;;5073435;28;20043;-41
2021/12/27 01:36:00;;;;;;;25.63;14.63;;;;;;;;;;5069026;28;20090;-41
2021/12/27 01:38:26;;;;;;;25.45;13.65;;;;;;;;;;5074446;28;20044;-42
2021/12/27 01:40:54;;;;;;;22.02;13.30;;;;;;;;;;5071814;28;20169;-42
2021/12/27 01:43:30;;;;;;;21.10;13.50;;;;;;;;;;5066671;28;20500;-42
2021/12/27 01:46:00;;;;;;;22.25;14.60;;;;;;;;;;5070912;28;20056;-42
2021/12/27 01:48:29;;;;;;;22.00;14.13;;;;;;;;;;5076407;28;20076;-41
2021/12/27 01:50:56;;;;;;;24.55;15.23;;;;;;;;;;5075940;28;20040;-42
2021/12/27 01:53:24;;;;;;;25.63;13.88;;;;;;;;;;5072684;28;20058;-41
2021/12/27 01:55:51;;;;;;;22.30;14.07;;;;;;;;;;5068700;28;20090;-42
2021/12/27 01:58:17;;;;;;;25.33;14.80;;;;;;;;;;5074164;28;20056;-41
2021/12/27 02:00:45;;;;;;;23.02;15.07;;;;;;;;;;5074986;28;20043;-47
2021/12/27 02:03:16;;;;;;;20.20;13.60;;;;;;;;;;5068676;28;20089;-43
2021/12/27 02:05:42;;;;;;;23.85;13.60;;;;;;;;;;5062428;28;20040;-43
2021/12/27 02:08:09;;;;;;;29.75;15.23;;;;;;;;;;5074029;28;20059;-42
2021/12/27 02:10:35;;;;;;;24.83;14.85;;;;;;;;;;5071356;28;20048;-42
2021/12/27 02:13:01;;;;;;;22.25;13.77;;;;;;;;;;5065417;28;20040;-47
2021/12/27 02:15:27;;;;;;;22.00;13.70;;;;;;;;;;5072701;28;20557;-44
2021/12/27 02:17:55;;;;;;;24.73;14.80;;;;;;;;;;5066849;28;20044;-46
2021/12/27 02:20:23;;;;;;;22.88;14.55;;;;;;;;;;5074367;28;20044;-45
2021/12/27 02:22:51;;;;;;;23.75;13.88;;;;;;;;;;5074507;28;20067;-43
2021/12/27 02:25:19;;;;;;;23.20;14.38;;;;;;;;;;5068337;28;20393;-43
2021/12/27 02:27:45;;;;;;;22.55;14.82;;;;;;;;;;5071748;28;20036;-45
2021/12/27 02:30:13;;;;;;;25.60;14.23;;;;;;;;;;5073684;28;20040;-43
2021/12/27 02:32:50;;;;;;;26.35;15.57;;;;;;;;;;5072661;28;20400;-41
2021/12/27 02:35:18;;;;;;;28.63;15.55;;;;;;;;;;5068969;28;20497;-44
2021/12/27 02:37:44;;;;;;;24.00;14.55;;;;;;;;;;5080765;28;20036;-43
2021/12/27 02:40:12;;;;;;;24.55;15.32;;;;;;;;;;5078223;28;20126;-42
2021/12/27 02:43:01;;;;;;;25.70;14.82;;;;;;;;;;5078932;28;20501;-46
2021/12/27 02:45:29;;;;;;;26.00;15.60;;;;;;;;;;5077013;28;20491;-46
2021/12/27 02:47:55;;;;;;;28.13;15.45;;;;;;;;;;5079099;28;20068;-43
2021/12/27 02:50:23;;;;;;;23.55;13.10;;;;;;;;;;5075449;28;20041;-42
2021/12/27 02:52:49;;;;;;;25.25;14.45;;;;;;;;;;5078338;28;20040;-43
2021/12/27 02:55:16;;;;;;;26.40;14.77;;;;;;;;;;5067613;28;20146;-43
2021/12/27 02:57:46;;;;;;;22.55;15.32;;;;;;;;;;5065934;28;20135;-44
2021/12/27 03:00:30;;;;;;;23.10;14.27;;;;;;;;;;5075848;28;20086;-43
2021/12/27 03:02:57;;;;;;;25.20;15.20;;;;;;;;;;5085387;28;20097;-43
2021/12/27 03:05:25;;;;;;;23.23;14.43;;;;;;;;;;5072327;28;20032;-41
2021/12/27 03:07:52;;;;;;;24.17;14.93;;;;;;;;;;5075428;28;20064;-43
2021/12/27 03:10:20;;;;;;;21.20;14.98;;;-0.80;99.90;;;;;;5076644;28;20302;-43
2021/12/27 03:12:47;;;;;;;25.83;15.27;;;;;;;;;;5083470;28;20036;-45
2021/12/27 03:15:15;;;;;;;24.08;14.88;;;;;;;;;;5072353;28;20060;-42
2021/12/27 03:17:42;;;;;;;26.02;16.05;;;;;;;;;;5073220;28;20032;-44
2021/12/27 03:20:08;;;;;;;23.55;12.93;;;;;;;;;;5083332;28;20033;-42
2021/12/27 03:22:37;;;;;;;24.33;15.48;;;;;;;;;;5070728;28;20053;-42
2021/12/27 03:25:04;;;;;;;25.05;15.32;;;;;;;;;;5071750;28;20048;-42
2021/12/27 03:27:30;;;;;;;22.85;14.20;;;;;;;;;;5075478;28;20052;-41
2021/12/27 03:29:56;;;;;;;23.25;14.80;;;;;;;;;;5075576;28;20497;-41
2021/12/27 03:32:23;;;;;;;24.17;15.52;;;;;;;;;;5074256;28;20032;-42
2021/12/27 03:34:54;;;;;;;21.05;13.77;;;;;;;;;;5075130;28;20518;-41
2021/12/27 03:37:21;;;;;;;23.77;15.05;;;;;;;;;;5073137;28;20128;-42
2021/12/27 03:39:48;;;;;;;26.63;16.35;;;;;;;;;;5071585;28;20071;-41
2021/12/27 03:42:15;;;;;;;23.45;14.80;;;;;;;;;;5069106;28;20063;-46
2021/12/27 03:44:41;;;;;;;25.73;16.17;;;;;;;;;;5072259;28;20032;-47
2021/12/27 03:47:07;;;;;;;23.08;15.32;;;;;;;;;;5080437;28;20523;-46
2021/12/27 03:49:34;;;;;;;26.10;15.98;;;;;;;;;;5074710;28;20036;-45
2021/12/27 03:52:00;;;;;;;28.00;16.88;;;;;;;;;;5070491;28;20143;-45
2021/12/27 03:54:26;;;;;;;27.65;16.00;;;;;;;;;;5077050;28;20480;-43
2021/12/27 03:56:55;;;;;;;21.38;14.98;;;;;;;;;;5079374;28;20458;-46
2021/12/27 03:59:33;;;;;;;27.75;15.88;;;;;;;;;;5074783;28;20048;-46
2021/12/27 04:02:02;;;;;;;24.15;15.32;;;;;;;;;;5066465;28;20044;-47
2021/12/27 04:04:28;;;;;;;25.17;14.95;;;;;;;;;;5067885;28;20043;-44
2021/12/27 04:06:55;;;;;;;23.55;15.27;;;-0.50;99.90;;;;;;5081847;28;20043;-45
2021/12/27 04:09:21;;;;;;;22.20;15.55;;;;;;;;;;5063759;28;20059;-46
2021/12/27 04:11:47;;;;;;;24.92;15.48;;;;;;;;;;5075460;28;20218;-47
2021/12/27 04:14:13;;;;;;;28.60;16.55;;;;;;;;;;5073370;28;20091;-47
2021/12/27 04:16:40;;;;;;;24.48;16.25;;;;;;;;;;5066570;28;20040;-48
2021/12/27 04:19:06;;;;;;;24.70;15.38;;;;;;;;;;5075300;28;20825;-46
2021/12/27 04:21:32;;;;;;;25.70;16.75;;;;;;;;;;5075189;28;20058;-48
2021/12/27 04:23:58;;;;;;;25.75;15.43;;;;;;;;;;5073360;28;20093;-42
2021/12/27 04:26:24;;;;;;;24.27;14.57;;;;;;;;;;5077667;28;20432;-43
2021/12/27 04:28:50;;;;;;;25.83;16.55;;;;;;;;;;5074148;28;20189;-44
2021/12/27 04:31:16;;;;;;;31.63;17.75;;;;;;;;;;5068073;28;20420;-45
2021/12/27 04:33:43;;;;;;;27.38;16.85;;;;;;;;;;5068719;28;20040;-42
2021/12/27 04:36:09;;;;;;;26.55;17.35;;;;;;;;;;5074484;28;20397;-42
2021/12/27 04:38:35;;;;;;;30.13;17.65;;;;;;;;;;5081458;28;20036;-42
2021/12/27 04:41:03;;;;;;;27.45;16.50;;;;;;;;;;5071816;28;20036;-42
2021/12/27 04:43:29;;;;;;;29.00;17.55;;;;;;;;;;5067532;28;20045;-41
2021/12/27 04:45:55;;;;;;;28.58;17.52;;;;;;;;;;5072503;28;20398;-41
2021/12/27 04:48:24;;;;;;;28.00;18.05;;;;;;;;;;5073471;28;20102;-42
2021/12/27 04:50:51;;;;;;;33.47;19.02;;;;;;;;;;5074425;28;20041;-42
2021/12/27 04:53:17;;;;;;;28.45;18.27;;;;;;;;;;5078097;28;20502;-42
2021/12/27 04:55:45;;;;;;;28.63;19.10;;;;;;;;;;5074080;28;20040;-41
2021/12/27 04:58:15;;;;;;;28.48;18.00;;;;;;;;;;5073711;28;20047;-43
2021/12/27 05:00:41;;;;;;;28.65;17.60;;;;;;;;;;5064836;28;20113;-43
2021/12/27 05:03:07;;;;;;;28.35;17.98;;;;;;;;;;5072587;28;20041;-42
2021/12/27 05:05:37;;;;;;;30.65;18.85;;;;;;;;;;5072702;28;20049;-41
2021/12/27 05:08:03;;;;;;;31.75;19.88;;;;;;;;;;5073537;28;20052;-41
2021/12/27 05:10:30;;;;;;;33.22;20.17;;;;;;;;;;5067870;28;20075;-41
2021/12/27 05:12:58;;;;;;;30.23;19.23;;;;;;;;;;5069533;28;20048;-42
2021/12/27 05:15:26;;;;;;;30.23;18.63;;;;;;;;;;5079069;28;20105;-41
2021/12/27 05:17:53;;;;;;;34.17;20.27;;;;;;;;;;5072200;28;20039;-41
2021/12/27 05:20:19;;;;;;;30.25;18.42;;;;;;;;;;5074442;28;20504;-42
2021/12/27 05:22:45;;;;;;;32.40;20.30;;;;;;;;;;5069520;28;20048;-41
2021/12/27 05:25:12;;;;;;;32.13;20.30;;;;;;;;;;5071915;28;20507;-43
2021/12/27 05:27:40;;;;;;;32.25;20.50;;;;;;;;;;5074570;28;20044;-41
2021/12/27 05:30:08;;;;;;;30.67;19.08;;;;;;;;;;5066613;28;20052;-45
2021/12/27 05:32:35;;;;;;;35.30;19.92;;;;;;;;;;5075357;28;20112;-48
2021/12/27 05:35:02;;;;;;;36.58;21.02;;;;;;;;;;5073030;28;20884;-41
2021/12/27 05:37:28;;;;;;;33.28;20.38;;;;;;;;;;5069655;28;20044;-44
2021/12/27 05:39:54;;;;;;;38.45;20.80;;;;;;;;;;5073683;28;20088;-45
2021/12/27 05:42:21;;;;;;;36.83;21.02;;;;;;;;;;5072938;28;20053;-43
2021/12/27 05:44:47;;;;;;;33.45;21.08;;;;;;;;;;5075453;28;20066;-46
2021/12/27 05:47:13;;;;;;;31.83;20.08;;;;;;;;;;5078244;28;20461;-46
2021/12/27 05:49:40;;;;;;;35.83;22.38;;;;;;;;;;5063767;28;20135;-43
2021/12/27 05:52:07;;;;;;;38.17;22.23;;;;;;;;;;5068055;28;20051;-47
2021/12/27 05:54:33;;;;;;;35.58;21.98;;;;;;;;;;5066678;28;20048;-45
2021/12/27 05:57:01;;;;;;;35.83;22.77;;;;;;;;;;5077771;28;20055;-46
2021/12/27 05:59:27;;;;;;;39.70;21.77;;;;;;;;;;5064431;28;20044;-46
2021/12/27 06:01:53;;;;;;;37.20;22.73;;;;;;;;;;5081913;28;20098;-47
2021/12/27 06:04:20;;;;;;;41.80;23.27;;;;;;;;;;5078566;28;20075;-46
2021/12/27 06:06:46;;;;;;;44.47;23.88;;;;;;;;;;5065073;28;20515;-46
2021/12/27 06:09:13;;;;;;;36.63;22.70;;;;;;;;;;5080431;28;20117;-47
2021/12/27 06:11:39;;;;;;;37.83;21.98;;;;;;;;;;5075693;28;20033;-43
2021/12/27 06:14:05;;;;;;;40.65;23.25;;;;;;;;;;5065165;28;20044;-43
2021/12/27 06:16:31;;;;;;;42.58;22.60;;;;;;;;;;5085326;28;20032;-46
2021/12/27 06:18:59;;;;;;;45.92;24.00;;;;;;;;;;5084354;28;20048;-44
2021/12/27 06:21:25;;;;;;;38.80;22.80;;;;;;;;;;5071716;28;20047;-43
2021/12/27 06:23:52;;;;;;;46.88;22.77;;;;;;;;;;5066226;28;20048;-46
2021/12/27 06:26:18;;;;;;;45.38;22.40;;;;;;;;;;5070799;28;20052;-47
2021/12/27 06:28:45;;;;;;;48.22;22.75;;;;;;;;;;5074979;28;20043;-43
2021/12/27 06:31:11;;;;;;;42.63;23.77;;;;;;;;;;5084230;28;20040;-45
2021/12/27 06:33:37;;;;;;;45.22;23.38;;;;;;;;;;5069524;28;20040;-47
2021/12/27 06:36:03;;;;;;;46.03;23.65;;;;;;;;;;5075511;28;20044;-46
2021/12/27 06:38:29;;;;;;;46.70;23.15;;;;;;;;;;5077399;28;20028;-44
2021/12/27 06:40:56;;;;;;;49.42;24.00;;;;;;;;;;5072642;28;20089;-46
2021/12/27 06:43:22;;;;;;;46.13;23.67;;;;;;;;;;5082758;28;20709;-45
2021/12/27 06:45:48;;;;;;;50.17;24.80;;;;;;;;;;5073639;28;20066;-46
2021/12/27 06:48:15;;;;;;;51.60;24.33;;;;;;;;;;5078144;28;20501;-41
2021/12/27 06:50:41;;;;;;;48.88;24.35;;;;;;;;;;5075324;28;20093;-43
2021/12/27 06:53:07;;;;;;;51.30;25.52;;;;;;;;;;5078949;28;20048;-43
2021/12/27 06:55:36;;;;;;;50.15;23.13;;;;;;;;;;5067269;28;20064;-45
2021/12/27 06:58:02;;;;;;;47.90;23.73;;;;;;;;;;5075086;28;20036;-42
2021/12/27 07:00:28;;;;;;;52.83;25.10;;;;;;;;;;5083511;28;20504;-41
2021/12/27 07:02:54;;;;;;;47.47;23.88;;;;;;;;;;5064741;28;20050;-42
2021/12/27 07:05:22;;;;;;;43.65;22.67;;;;;;;;;;5065248;28;20029;-41
2021/12/27 07:07:51;;;;;;;43.47;22.85;;;-0.30;99.90;;;;;;5076817;28;20063;-41
2021/12/27 07:10:19;;;;;;;44.45;24.65;;;;;;;;;;5077928;28;20456;-42
2021/12/27 07:12:45;;;;;;;49.22;24.10;;;;;;;;;;5063949;28;20040;-46
2021/12/27 07:15:13;;;;;;;45.63;22.80;;;;;;;;;;5073237;28;20044;-44
2021/12/27 07:17:39;;;;;;;36.92;21.95;;;;;;;;;;5066128;28;20816;-46
2021/12/27 07:20:06;;;;;;;46.78;22.85;;;;;;;;;;5079290;28;20131;-42
2021/12/27 07:22:32;;;;;;;45.42;22.45;;;;;;;;;;5075217;28;20581;-45
2021/12/27 07:24:58;;;;;;;45.05;23.58;;;;;;;;;;5066704;28;20055;-41
2021/12/27 07:27:24;;;;;;;41.88;23.52;;;;;;;;;;5083241;28;20035;-41
2021/12/27 07:29:51;;;;;;;49.92;24.63;;;;;;;;;;5082531;28;20036;-41
2021/12/27 07:32:17;;;;;;;42.42;23.35;;;;;;;;;;5070079;28;20051;-43
2021/12/27 07:34:43;;;;;;;47.90;24.85;;;;;;;;;;5069457;28;20151;-41
2021/12/27 07:37:11;;;;;;;49.75;24.85;;;;;;;;;;5083396;28;20032;-46
2021/12/27 07:39:37;;;;;;;49.13;25.13;;;;;;;;;;5065729;28;20041;-45
2021/12/27 07:42:04;;;;;;;51.25;25.00;;;;;;;;;;5080347;28;20630;-41
2021/12/27 07:44:31;;;;;;;43.92;24.38;;;;;;;;;;5076878;28;20044;-42
2021/12/27 07:46:57;;;;;;;59.70;26.95;;;;;;;;;;5066247;28;20055;-43
2021/12/27 07:49:24;;;;;;;53.47;25.67;;;;;;;;;;5076192;28;20176;-41
2021/12/27 07:51:50;;;;;;;52.28;27.58;;;;;;;;;;5062188;28;20076;-41
2021/12/27 07:54:16;;;;;;;57.78;26.05;;;;;;;;;;5064137;28;20063;-41
2021/12/27 07:56:42;;;;;;;52.65;26.20;;;;;;;;;;5079041;28;20121;-42
2021/12/27 07:59:09;;;;;;;55.03;27.00;;;;;;;;;;5080937;28;20396;-42
2021/12/27 08:01:37;;;;;;;55.50;26.60;;;;;;;;;;5074698;28;20229;-42
2021/12/27 08:04:03;;;;;;;66.60;27.80;;;;;;;;;;5069067;28;20040;-41
2021/12/27 08:06:30;;;;;;;59.60;28.42;;;;;;;;;;5068690;28;20395;-41
2021/12/27 08:08:56;;;;;;;62.38;27.67;;;;;;;;;;5074861;28;20052;-42
2021/12/27 08:11:22;;;;;;;59.83;27.00;;;;;;;;;;5073875;28;20509;-42
2021/12/27 08:13:48;;;;;;;60.40;28.58;;;;;;;;;;5064346;28;20041;-41
2021/12/27 08:16:14;;;;;;;63.35;28.40;;;;;;;;;;5078530;28;20035;-41
2021/12/27 08:18:41;;;;;;;67.55;25.45;;;;;;;;;;5075790;28;20036;-43
2021/12/27 08:21:07;;;;;;;63.58;27.20;;;;;;;;;;5065473;28;20119;-43
2021/12/27 08:23:33;;;;;;;67.25;29.27;;;;;;;;;;5084321;28;20063;-43
2021/12/27 08:26:00;;;;;;;72.30;29.65;;;;;;;;;;5074793;28;20036;-41
2021/12/27 08:28:26;;;;;;;64.90;28.80;;;;;;;;;;5065469;28;20126;-41
2021/12/27 08:30:55;;;;;;;73.32;28.83;;;0.10;99.90;;;;;;5070182;28;20547;-41
2021/12/27 08:33:21;;;;;;;75.93;31.50;;;;;;;;;;5068642;28;20646;-42
2021/12/27 08:35:47;;;;;;;75.50;29.83;;;;;;;;;;5068934;28;20048;-41
2021/12/27 08:38:14;;;;;;;89.53;32.03;;;;;;;;;;5064065;28;20048;-44
2021/12/27 08:40:40;;;;;;;79.38;30.92;;;;;;;;;;5069097;28;20047;-41
2021/12/27 08:43:06;;;;;;;86.30;31.92;;;;;;;;;;5072503;28;20287;-42
2021/12/27 08:45:32;;;;;;;85.20;31.63;;;;;;;;;;5067270;28;20531;-41
2021/12/27 08:47:58;;;;;;;88.35;32.42;;;;;;;;;;5082010;28;20032;-41
2021/12/27 08:50:24;;;;;;;84.45;30.52;;;;;;;;;;5068606;28;20101;-41
2021/12/27 08:52:52;;;;;;;90.57;33.72;;;;;;;;;;5071581;28;20132;-43
2021/12/27 08:55:18;;;;;;;91.28;34.08;;;;;;;;;;5077483;28;20032;-47
2021/12/27 08:57:44;;;;;;;94.03;33.45;;;;;;;;;;5071731;28;20039;-47
2021/12/27 09:00:13;;;;;;;89.22;32.20;;;;;;;;;;5082007;28;20078;-43
2021/12/27 09:02:39;;;;;;;105.93;35.15;;;;;;;;;;5066628;28;20110;-45
2021/12/27 09:05:05;;;;;;;105.97;34.90;;;;;;;;;;5068090;28;20032;-47
2021/12/27 09:07:32;;;;;;;87.10;28.95;;;;;;;;;;5063484;28;20066;-44
2021/12/27 09:09:58;;;;;;;96.65;34.83;;;;;;;;;;5077092;28;20059;-45
2021/12/27 09:12:24;;;;;;;94.22;33.42;;;;;;;;;;5060943;28;20029;-45
2021/12/27 09:14:52;;;;;;;105.90;33.85;;;;;;;;;;5069781;28;20045;-46
2021/12/27 09:17:18;;;;;;;110.25;35.10;;;;;;;;;;5079710;28;20043;-42
2021/12/27 09:19:45;;;;;;;116.28;36.17;;;;;;;;;;5079380;28;20044;-44
2021/12/27 09:22:15;;;;;;;108.85;35.13;;;;;;;;;;5068729;28;20655;-42
2021/12/27 09:24:42;;;;;;;109.13;34.75;;;;;;;;;;5071977;28;20036;-41
2021/12/27 09:27:08;;;;;;;106.18;33.50;;;;;;;;;;5075274;28;20044;-41
2021/12/27 09:29:37;;;;;;;121.18;35.80;;;;;;;;;;5067126;28;20123;-41
2021/12/27 09:32:04;;;;;;;103.15;31.88;;;;;;;;;;5081088;28;20119;-44
2021/12/27 09:34:30;;;;;;;97.88;34.13;;;;;;;;;;5073523;28;20044;-43
2021/12/27 09:36:58;;;;;;;98.00;33.55;;;;;;;;;;5080470;28;20048;-45
2021/12/27 09:39:24;;;;;;;116.75;33.03;;;;;;;;;;5063603;28;20036;-43
2021/12/27 09:41:50;;;;;;;82.28;30.00;;;;;;;;;;5068494;28;20040;-42
2021/12/27 09:44:16;;;;;;;91.82;29.63;;;;;;;;;;5071131;28;20532;-44
2021/12/27 09:46:42;;;;;;;88.28;32.72;;;;;;;;;;5080665;28;20044;-44
2021/12/27 09:49:10;;;;;;;97.20;33.53;;;;;;;;;;5082031;28;20036;-43
2021/12/27 09:51:37;;;;;;;93.80;33.13;;;;;;;;;;5068839;28;20117;-42
2021/12/27 09:54:04;;;;;;;93.72;31.95;;;;;;;;;;5070686;28;20493;-43
2021/12/27 09:56:30;;;;;;;79.38;32.38;;;;;;;;;;5059837;28;20037;-43
2021/12/27 09:58:56;;;;;;;80.05;31.92;;;;;;;;;;5073619;28;20774;-42
2021/12/27 10:01:22;;;;;;;92.47;31.02;;;;;;;;;;5065919;28;20078;-43
2021/12/27 10:03:50;;;;;;;84.15;31.52;;;;;;;;;;5061793;28;20170;-42
2021/12/27 10:06:18;;;;;;;77.60;28.13;;;;;;;;;;5066903;28;20519;-42
2021/12/27 10:08:45;;;;;;;79.00;26.45;;;;;;;;;;5080254;28;20044;-42
2021/12/27 10:11:21;;;;;;;70.15;29.60;;;;;;;;;;5080170;28;20046;-43
2021/12/27 10:13:58;;;;;;;71.00;30.35;;;;;;;;;;5079446;28;20052;-43
2021/12/27 10:16:25;;;;;;;82.75;32.00;;;;;;;;;;5063874;28;20366;-42
2021/12/27 10:18:58;;;;;;;91.18;33.42;;;;;;;;;;5075150;28;20040;-43
2021/12/27 10:21:26;;;;;;;88.65;33.10;;;;;;;;;;5076630;28;20097;-44
2021/12/27 10:24:13;;;;;;;90.78;30.40;;;0.80;99.90;;;;;;5076133;28;20156;-42
2021/12/27 10:26:42;;;;;;;85.60;30.35;;;;;;;;;;5068284;28;20044;-43
2021/12/27 10:29:08;;;;;;;88.25;32.65;;;;;;;;;;5080701;28;20504;-42
2021/12/27 10:31:50;;;;;;;107.88;32.83;;;;;;;;;;5070924;28;20029;-42
2021/12/27 10:34:16;;;;;;;;;;;;;;;;;;5071359;28;20044;-43
2021/12/27 10:37:01;;;;;;;102.57;31.55;;;;;;;;;;5080462;28;19931;-42
2021/12/27 10:39:42;;;;;;;97.03;32.90;;;;;;;;;;5068874;28;20044;-47
2021/12/27 10:42:08;;;;;;;130.40;32.92;;;;;;;;;;5063866;28;20040;-46
2021/12/27 10:44:36;;;;;;;189.48;38.50;;;0.90;99.90;;;;;;5062883;28;20451;-46
2021/12/27 10:47:03;;;;;;;124.95;33.42;;;;;;;;;;5081653;28;20051;-49
2021/12/27 10:49:44;;;;;;;159.18;36.03;;;;;;;;;;5079334;28;20130;-48
2021/12/27 10:52:10;;;;;;;114.72;33.55;;;;;;;;;;5074784;28;20036;-47
2021/12/27 10:54:38;;;;;;;136.52;35.22;;;0.80;99.90;;;;;;5073561;28;20123;-48
2021/12/27 10:57:05;;;;;;;141.75;35.50;;;;;;;;;;5072718;28;20044;-48
2021/12/27 10:59:31;;;;;;;166.95;37.33;;;;;;;;;;5074387;28;20035;-47
2021/12/27 11:02:10;;;;;;;126.25;32.55;;;1.00;99.90;;;;;;5075328;28;20117;-47
2021/12/27 11:04:37;;;;;;;173.63;35.58;;;;;;;;;;5068243;28;20114;-48
2021/12/27 11:07:06;;;;;;;120.40;36.45;;;;;;;;;;5064452;28;20040;-48
2021/12/27 11:09:34;;;;;;;118.82;34.45;;;;;;;;;;5073566;28;20061;-48
2021/12/27 11:12:00;;;;;;;124.93;35.63;;;;;;;;;;5083603;28;20040;-48
2021/12/27 11:14:28;;;;;;;146.68;33.08;;;1.20;99.90;;;;;;5075583;28;20067;-49
2021/12/27 11:16:54;;;;;;;136.43;36.80;;;1.20;99.90;;;;;;5078755;28;20382;-49
2021/12/27 11:19:21;;;;;;;140.77;34.35;;;1.20;99.90;;;;;;5073060;28;20030;-44
2021/12/27 11:21:50;;;;;;;134.88;34.42;;;;;;;;;;5083847;28;20778;-48
2021/12/27 11:24:18;;;;;;;154.88;35.95;;;;;;;;;;5068209;28;20559;-48
2021/12/27 11:26:44;;;;;;;129.00;32.20;;;;;;;;;;5063424;28;20449;-48
2021/12/27 11:29:10;;;;;;;164.50;35.58;;;;;;;;;;5076407;28;20107;-49
2021/12/27 11:31:38;;;;;;;130.50;34.65;;;;;;;;;;5068964;28;20465;-48
2021/12/27 11:34:07;;;;;;;143.77;34.40;;;1.30;99.90;;;;;;5081920;28;20097;-48
2021/12/27 11:36:35;;;;;;;179.40;35.53;;;;;;;;;;5061209;28;20041;-48
2021/12/27 11:39:22;;;;;;;148.25;36.97;;;;;;;;;;5064856;28;20099;-45
2021/12/27 11:42:05;;;;;;;189.25;37.40;;;;;;;;;;5080020;28;20138;-45
2021/12/27 11:44:53;;;;;;;139.25;35.80;;;1.30;99.90;;;;;;5073165;28;20036;-44
2021/12/27 11:47:32;;;;;;;195.27;38.70;;;;;;;;;;5072146;28;21041;-42
2021/12/27 11:50:02;;;;;;;145.25;35.75;;;1.30;99.90;;;;;;5078997;28;20473;-43
2021/12/27 11:52:33;;;;;;;147.38;36.97;;;1.30;99.90;;;;;;5063484;28;20042;-43
2021/12/27 11:55:01;;;;;;;144.05;38.53;;;1.40;99.90;;;;;;5061869;28;20127;-44
2021/12/27 11:57:36;;;;;;;148.75;37.08;;;;;;;;;;5073305;28;20090;-43
2021/12/27 12:00:26;;;;;;;166.48;37.50;;;1.30;99.90;;;;;;5064110;28;20041;-44
2021/12/27 12:03:35;;;;;;;155.57;37.08;;;1.30;99.90;;;;;;5079675;28;20040;-43
2021/12/27 12:06:01;;;;;;;151.40;35.20;;;;;;;;;;4993655;28;20038;-42
2021/12/27 12:08:27;;;;;;;174.20;38.92;;;;;;;;;;4994100;28;20050;-43
2021/12/27 12:10:57;;;;;;;177.50;41.33;;;1.40;99.90;;;;;;4989210;28;20053;-47
2021/12/27 12:13:28;;;;;;;171.48;35.45;;;1.40;99.90;;;;;;4985455;28;25463;-43
2021/12/27 12:15:58;;;;;;;156.90;36.20;;;;;;;;;;4988898;28;20038;-44
2021/12/27 12:18:24;;;;;;;137.30;33.63;;;;;;;;;;4985511;28;20153;-46
2021/12/27 12:20:50;;;;;;;177.95;35.08;;;;;;;;;;4990090;28;20177;-44
2021/12/27 12:23:16;;;;;;;187.55;35.92;;;;;;;;;;4985527;28;20074;-43
2021/12/27 12:25:42;;;;;;;185.48;34.10;;;;;;;;;;4999332;28;20593;-44
2021/12/27 12:28:11;;;;;;;165.27;35.58;;;1.50;99.90;;;;;;4998781;28;20058;-48
2021/12/27 12:30:40;;;;;;;140.18;36.22;;;1.40;99.90;;;;;;5001199;28;20092;-45
2021/12/27 12:33:11;;;;;;;151.43;37.05;;;1.50;99.90;;;;;;4995413;28;20117;-45
2021/12/27 12:35:44;;;;;;;146.63;37.03;;;1.60;99.90;;;;;;4996074;28;20053;-47
2021/12/27 12:38:20;;;;;;;158.82;37.65;;;;;;;;;;4987009;28;21649;-47
2021/12/27 12:40:57;;;;;;;141.07;35.15;;;;;;;;;;4996774;28;20143;-48
2021/12/27 12:43:33;;;;;;;164.38;34.25;;;;;;;;;;5077739;28;20044;-46
2021/12/27 12:46:09;;;;;;;177.65;39.22;;;1.90;99.90;;;;;;5063808;28;20068;-45
2021/12/27 12:48:35;;;;;;;141.18;33.95;;;;;;;;;;5070948;28;20107;-49
2021/12/27 12:51:02;;;;;;;211.00;38.10;;;;;;;;;;5072320;28;20070;-46
2021/12/27 12:53:32;;;;;;;212.18;40.50;;;1.70;99.90;;;;;;5064586;28;20040;-46
2021/12/27 12:56:03;;;;;;;157.73;39.35;;;;;;;;;;5082918;28;20504;-44
2021/12/27 12:58:36;;;;;;;183.70;38.40;;;;;;;;;;5072641;28;20039;-47
2021/12/27 13:01:04;;;;;;;219.80;39.90;;;;;;;;;;5071231;28;20040;-47
2021/12/27 13:03:30;;;;;;;209.00;37.80;;;;;;;;;;5078296;28;20040;-45
2021/12/27 13:06:02;;;;;;;171.32;38.65;;;1.90;99.90;;;;;;5080449;28;20888;-45
2021/12/27 13:08:28;;;;;;;229.98;40.63;;;;;;;;;;5075585;28;20036;-46
2021/12/27 13:11:02;;;;;;;195.63;36.90;;;1.90;99.90;;;;;;5080582;28;20059;-46
2021/12/27 13:13:28;;;;;;;148.15;35.78;;;;;;;;;;5063063;28;20408;-45
2021/12/27 13:16:03;;;;;;;168.20;33.17;;;2.00;99.90;;;;;;5081352;28;20146;-46
2021/12/27 13:18:33;;;;;;;181.82;37.95;;;;;;;;;;5080878;28;20036;-45
2021/12/27 13:21:09;;;;;;;179.65;37.28;;;2.00;99.90;;;;;;5070696;28;20040;-48
2021/12/27 13:23:37;;;;;;;192.07;37.40;;;1.90;99.90;;;;;;5077217;28;20161;-50
2021/12/27 13:26:10;;;;;;;186.93;37.97;;;;;;;;;;5070483;28;20093;-47
2021/12/27 13:28:39;;;;;;;182.25;40.15;;;;;;;;;;5063229;28;20044;-49
2021/12/27 13:31:11;;;;;;;197.35;40.75;;;;;;;;;;5081911;28;20043;-48
2021/12/27 13:33:36;;;;;;;;;;;1.90;99.90;;;;;;5082893;28;20077;-47
2021/12/27 13:36:05;;;;;;;159.88;36.53;;;2.00;99.90;;;;;;5088777;28;19924;-48
2021/12/27 13:38:32;;;;;;;177.80;39.55;;;;;;;;;;5070977;28;20051;-45
2021/12/27 13:41:03;;;;;;;182.23;36.85;;;1.80;99.90;;;;;;5066542;28;20094;-47
2021/12/27 13:43:31;;;;;;;172.38;36.83;;;2.00;99.90;;;;;;5061892;28;20039;-45
2021/12/27 13:46:09;;;;;;;204.55;41.95;;;1.80;99.90;;;;;;5066777;28;20734;-50
2021/12/27 13:48:35;;;;;;;178.90;38.35;;;;;;;;;;5079002;28;20032;-47
2021/12/27 13:51:03;;;;;;;134.25;36.85;;;2.00;99.90;;;;;;5077972;28;20043;-48
2021/12/27 13:53:29;;;;;;;151.13;38.85;;;;;;;;;;5081762;28;20111;-47
2021/12/27 13:56:10;;;;;;;165.82;36.95;;;2.00;99.90;;;;;;5063129;28;20041;-46
2021/12/27 13:58:43;;;;;;;198.00;40.67;;;1.70;99.90;;;;;;5065559;28;20036;-47
2021/12/27 14:01:17;;;;;;;161.80;40.75;;;1.90;99.90;;;;;;5077083;28;20035;-45
2021/12/27 14:03:44;;;;;;;155.73;36.55;;;1.90;99.90;;;;;;5072086;28;20097;-46
2021/12/27 14:06:12;;;;;;;183.18;37.83;;;2.00;99.90;;;;;;5077855;28;20036;-45